createdAt,value
2022-09-10T00:00:00.164Z,11.4
2022-09-10T00:05:00.164Z,11.4
2022-09-10T00:10:00.272Z,11.4
2022-09-10T00:15:00.154Z,11.4
2022-09-10T00:20:00.173Z,11.3
2022-09-10T00:25:00.318Z,11.3
2022-09-10T00:30:00.272Z,11.2
2022-09-10T00:35:00.227Z,11.2
2022-09-10T00:40:00.313Z,11.2
2022-09-10T00:45:00.183Z,11.1
2022-09-10T00:50:00.171Z,11.1
2022-09-10T00:55:00.318Z,11.1
2022-09-10T01:00:00.220Z,11.1
2022-09-10T01:05:00.279Z,11.1
2022-09-10T01:10:00.175Z,11.1
2022-09-10T01:15:00.164Z,11.1
2022-09-10T01:20:00.192Z,11.2
2022-09-10T01:25:00.190Z,11.4
2022-09-10T01:30:00.278Z,11.4
2022-09-10T01:35:00.478Z,11.4
2022-09-10T01:40:00.315Z,11.5
2022-09-10T01:45:00.251Z,11.6
2022-09-10T01:50:00.229Z,11.7
2022-09-10T01:55:00.249Z,11.8
2022-09-10T02:00:00.318Z,11.9
2022-09-10T02:05:01.390Z,12
2022-09-10T02:10:00.180Z,12.1
2022-09-10T02:15:00.180Z,12.1
2022-09-10T02:20:00.233Z,12.1
2022-09-10T02:25:00.173Z,12.2
2022-09-10T02:30:00.233Z,12.2
2022-09-10T02:35:00.163Z,12.2
2022-09-10T02:40:00.338Z,12.3
2022-09-10T02:45:00.172Z,12.3
2022-09-10T02:50:00.171Z,12.4
2022-09-10T02:55:00.177Z,12.4
2022-09-10T03:00:00.191Z,12.5
2022-09-10T03:05:00.179Z,12.5
2022-09-10T03:10:00.206Z,12.6
2022-09-10T03:15:00.171Z,12.6
2022-09-10T03:20:00.178Z,12.6
2022-09-10T03:25:00.182Z,12.7
2022-09-10T03:30:00.183Z,12.7
2022-09-10T03:35:00.237Z,12.7
2022-09-10T03:40:00.233Z,12.8
2022-09-10T03:45:00.170Z,12.7
2022-09-10T03:50:00.201Z,12.7
2022-09-10T03:55:00.166Z,12.8
2022-09-10T04:00:00.177Z,12.8
2022-09-10T04:05:00.179Z,12.9
2022-09-10T04:10:00.164Z,12.9
2022-09-10T04:15:00.159Z,12.9
2022-09-10T04:20:00.161Z,13
2022-09-10T04:25:00.174Z,13
2022-09-10T04:30:00.176Z,13
2022-09-10T04:35:00.173Z,13
2022-09-10T04:40:00.288Z,13
2022-09-10T04:45:00.195Z,13.1
2022-09-10T04:50:00.187Z,13.1
2022-09-10T04:55:00.162Z,13.1
2022-09-10T05:00:00.174Z,13.1
2022-09-10T05:05:00.179Z,13.1
2022-09-10T05:10:00.174Z,13.2
2022-09-10T05:15:00.162Z,13.2
2022-09-10T05:20:00.167Z,13.2
2022-09-10T05:25:00.166Z,13.2
2022-09-10T05:30:00.173Z,13.3
2022-09-10T05:35:00.175Z,13.4
2022-09-10T05:40:00.257Z,13.3
2022-09-10T05:45:00.177Z,13.4
2022-09-10T05:50:00.287Z,13.4
2022-09-10T05:55:00.166Z,13.4
2022-09-10T06:00:00.175Z,13.6
2022-09-10T06:05:00.169Z,13.7
2022-09-10T06:10:00.267Z,13.7
2022-09-10T06:15:00.180Z,13.7
2022-09-10T06:20:00.260Z,13.6
2022-09-10T06:25:00.171Z,13.6
2022-09-10T06:30:00.209Z,13.7
2022-09-10T06:35:00.166Z,13.8
2022-09-10T06:40:00.280Z,13.9
2022-09-10T06:45:00.185Z,14
2022-09-10T06:50:00.171Z,14.1
2022-09-10T06:55:00.162Z,14.2
2022-09-10T07:00:00.187Z,14.4
2022-09-10T07:05:00.172Z,14.4
2022-09-10T07:10:00.208Z,14.4
2022-09-10T07:15:00.168Z,14.4
2022-09-10T07:20:00.470Z,14.4
2022-09-10T07:25:00.178Z,14.4
2022-09-10T07:30:00.198Z,14.4
2022-09-10T07:35:00.177Z,14.4
2022-09-10T07:40:00.244Z,14.4
2022-09-10T07:45:00.196Z,14.4
2022-09-10T07:50:00.184Z,14.5
2022-09-10T07:55:00.174Z,14.6
2022-09-10T08:00:00.174Z,14.8
2022-09-10T08:05:00.204Z,14.8
2022-09-10T08:10:00.366Z,14.8
2022-09-10T08:15:00.966Z,14.9
2022-09-10T08:20:00.194Z,14.8
2022-09-10T08:25:00.168Z,14.8
2022-09-10T08:30:00.195Z,14.9
2022-09-10T08:35:00.187Z,15
2022-09-10T08:40:00.298Z,15.1
2022-09-10T08:45:00.172Z,15.2
2022-09-10T08:50:00.242Z,15.4
2022-09-10T08:55:00.158Z,15.5
2022-09-10T09:00:00.178Z,15.5
2022-09-10T09:05:00.173Z,15.5
2022-09-10T09:10:00.193Z,15.6
2022-09-10T09:15:00.479Z,15.8
2022-09-10T09:20:00.217Z,15.9
2022-09-10T09:25:00.386Z,16
2022-09-10T09:30:00.212Z,16
2022-09-10T09:35:00.248Z,16.1
2022-09-10T09:40:00.423Z,16.1
2022-09-10T09:45:00.358Z,16.2
2022-09-10T09:50:00.182Z,16.4
2022-09-10T09:55:14.738Z,16.5
2022-09-10T10:00:00.321Z,16.6
2022-09-10T10:05:00.333Z,16.8
2022-09-10T10:10:00.218Z,17.1
2022-09-10T10:15:00.161Z,17.1
2022-09-10T10:20:00.201Z,17.2
2022-09-10T10:25:00.480Z,17.4
2022-09-10T10:30:00.299Z,17.6
2022-09-10T10:35:00.390Z,17.8
2022-09-10T10:40:00.326Z,17.9
2022-09-10T10:45:00.166Z,17.8
2022-09-10T10:50:00.185Z,18
2022-09-10T10:55:00.168Z,17.6
2022-09-10T11:00:00.193Z,17.7
2022-09-10T11:05:00.170Z,17.5
2022-09-10T11:10:00.273Z,17.2
2022-09-10T11:15:00.585Z,17
2022-09-10T11:20:26.685Z,17.2
2022-09-10T11:25:00.183Z,17.6
2022-09-10T11:30:00.163Z,17.6
2022-09-10T11:35:00.851Z,17.8
2022-09-10T11:40:00.522Z,18.2
2022-09-10T11:45:00.530Z,18.6
2022-09-10T11:50:00.176Z,18.8
2022-09-10T11:55:00.362Z,18.7
2022-09-10T12:00:00.778Z,18.3
2022-09-10T12:05:00.171Z,18.3
2022-09-10T12:10:00.173Z,18.6
2022-09-10T12:15:00.172Z,18.6
2022-09-10T12:20:00.320Z,18.9
2022-09-10T12:25:00.158Z,19.2
2022-09-10T12:30:00.158Z,19
2022-09-10T12:35:00.229Z,18.9
2022-09-10T12:40:00.413Z,19.1
2022-09-10T12:45:00.240Z,19.5
2022-09-10T12:50:00.210Z,19.4
2022-09-10T13:00:00.181Z,19.7
2022-09-10T13:05:00.178Z,19.7
2022-09-10T13:10:00.221Z,19.8
2022-09-10T13:15:00.458Z,19.7
2022-09-10T13:20:00.704Z,20.1
2022-09-10T13:25:00.193Z,20.5
2022-09-10T13:30:00.338Z,20.4
2022-09-10T13:35:00.158Z,20.4
2022-09-10T13:40:00.405Z,20.3
2022-09-10T13:45:00.178Z,19.8
2022-09-10T13:50:00.326Z,19.9
2022-09-10T13:55:00.174Z,20.2
2022-09-10T14:00:00.387Z,20.4
2022-09-10T14:05:00.175Z,20.6
2022-09-10T14:10:00.332Z,21
2022-09-10T14:15:00.176Z,20.7
2022-09-10T14:20:00.317Z,20.8
2022-09-10T14:25:00.183Z,20.7
2022-09-10T14:30:00.284Z,20.4
2022-09-10T14:35:01.945Z,19.7
2022-09-10T14:40:00.393Z,19.4
2022-09-10T14:45:00.163Z,19.2
2022-09-10T14:50:03.207Z,19
2022-09-10T14:55:00.163Z,18.9
2022-09-10T15:00:00.286Z,18.8
2022-09-10T15:05:00.257Z,18.9
2022-09-10T15:10:00.173Z,18.9
2022-09-10T15:15:00.165Z,18.9
2022-09-10T15:20:00.165Z,18.8
2022-09-10T15:25:10.405Z,18.8
2022-09-10T15:30:00.264Z,18.8
2022-09-10T15:35:00.179Z,18.6
2022-09-10T15:40:00.287Z,18.4
2022-09-10T15:45:00.209Z,18.2
2022-09-10T15:50:00.186Z,18.1
2022-09-10T15:55:00.281Z,18.1
2022-09-10T16:00:00.225Z,18.1
2022-09-10T16:05:00.239Z,18.2
2022-09-10T16:10:00.190Z,18.1
2022-09-10T16:15:00.265Z,17.9
2022-09-10T16:20:00.247Z,17.8
2022-09-10T16:25:00.249Z,17.6
2022-09-10T16:30:00.177Z,17.7
2022-09-10T16:35:00.867Z,17.7
2022-09-10T16:40:00.219Z,17.6
2022-09-10T16:45:00.169Z,17.5
2022-09-10T16:50:00.210Z,17.4
2022-09-10T16:55:00.175Z,17.2
2022-09-10T17:00:00.197Z,17.1
2022-09-10T17:05:00.178Z,17
2022-09-10T17:10:01.066Z,16.8
2022-09-10T17:15:00.397Z,16.6
2022-09-10T17:20:00.834Z,16.4
2022-09-10T17:25:00.352Z,16.3
2022-09-10T17:30:00.546Z,16.1
2022-09-10T17:35:00.258Z,16
2022-09-10T17:40:00.242Z,15.9
2022-09-10T17:45:00.183Z,15.8
2022-09-10T17:50:00.179Z,15.8
2022-09-10T17:55:00.178Z,15.6
2022-09-10T18:00:00.402Z,15.6
2022-09-10T18:05:00.173Z,15.5
2022-09-10T18:10:00.188Z,15.5
2022-09-10T18:15:00.237Z,15.4
2022-09-10T18:20:00.258Z,15.2
2022-09-10T18:25:00.202Z,15.2
2022-09-10T18:30:00.175Z,15.2
2022-09-10T18:35:00.158Z,15.1
2022-09-10T18:40:00.300Z,15.1
2022-09-10T18:45:00.172Z,15
2022-09-10T18:50:00.186Z,14.9
2022-09-10T18:55:00.164Z,14.9
2022-09-10T19:00:00.176Z,14.9
2022-09-10T19:05:11.341Z,14.9
2022-09-10T19:10:00.192Z,14.9
2022-09-10T19:15:00.323Z,14.9
2022-09-10T19:20:00.176Z,14.8
2022-09-10T19:25:00.182Z,14.8
2022-09-10T19:30:00.183Z,14.8
2022-09-10T19:35:00.217Z,14.8
2022-09-10T19:40:00.700Z,14.7
2022-09-10T19:45:00.159Z,14.6
2022-09-10T19:50:00.214Z,14.6
2022-09-10T19:55:00.185Z,14.6
2022-09-10T20:00:00.356Z,14.6
2022-09-10T20:05:00.184Z,14.6
2022-09-10T20:10:00.177Z,14.6
2022-09-10T20:15:00.165Z,14.5
2022-09-10T20:20:00.178Z,14.5
2022-09-10T20:25:00.187Z,14.4
2022-09-10T20:30:00.161Z,14.4
2022-09-10T20:35:00.190Z,14.4
2022-09-10T20:40:00.269Z,14.4
2022-09-10T20:45:00.237Z,14.2
2022-09-10T20:50:00.173Z,14.1
2022-09-10T20:55:00.226Z,14.1
2022-09-10T21:00:00.186Z,14.1
2022-09-10T21:05:00.176Z,14
2022-09-10T21:10:00.167Z,14
2022-09-10T21:15:00.185Z,14.1
2022-09-10T21:20:00.179Z,14.1
2022-09-10T21:25:00.168Z,14.1
2022-09-10T21:30:00.184Z,14.1
2022-09-10T21:35:00.182Z,14.1
2022-09-10T21:40:00.457Z,14.1
2022-09-10T21:45:00.253Z,14.2
2022-09-10T21:50:00.330Z,14.1
2022-09-10T21:55:00.210Z,14.1
2022-09-10T22:00:00.206Z,14.1
2022-09-10T22:05:00.167Z,14
2022-09-10T22:10:00.162Z,13.9
2022-09-10T22:15:00.168Z,13.9
2022-09-10T22:20:00.191Z,13.9
2022-09-10T22:25:00.160Z,13.9
2022-09-10T22:30:00.185Z,13.9
2022-09-10T22:35:00.183Z,13.9
2022-09-10T22:40:00.506Z,13.8
2022-09-10T22:45:00.236Z,13.8
2022-09-10T22:50:00.197Z,13.8
2022-09-10T22:55:00.252Z,13.8
2022-09-10T23:00:00.231Z,13.9
2022-09-10T23:05:00.291Z,13.9
2022-09-10T23:10:00.218Z,13.9
2022-09-10T23:15:00.175Z,13.9
2022-09-10T23:20:00.213Z,13.9
2022-09-10T23:25:00.177Z,13.8
2022-09-10T23:30:00.227Z,13.8
2022-09-10T23:35:00.166Z,13.8
2022-09-10T23:40:00.279Z,13.8
2022-09-10T23:45:00.170Z,13.8
2022-09-10T23:50:00.166Z,13.8
2022-09-10T23:55:00.160Z,13.8
